createdAt,value
2023-04-27T00:00:16.502Z,99.90
2023-04-27T00:05:21.480Z,99.90
2023-04-27T00:10:24.960Z,99.90
2023-04-27T00:15:29.739Z,99.90
2023-04-27T00:20:34.817Z,99.90
2023-04-27T00:25:38.326Z,99.90
2023-04-27T00:30:41.678Z,99.90
2023-04-27T00:35:46.335Z,99.90
2023-04-27T00:40:50.806Z,99.90
2023-04-27T00:45:54.801Z,99.90
2023-04-27T00:50:59.768Z,99.90
2023-04-27T00:56:05.259Z,99.90
2023-04-27T01:01:10.112Z,99.90
2023-04-27T01:06:15.063Z,99.90
2023-04-27T01:11:21.676Z,99.90
2023-04-27T01:16:25.208Z,99.90
2023-04-27T01:21:29.915Z,99.90
2023-04-27T01:26:36.969Z,99.90
2023-04-27T01:31:40.369Z,99.90
2023-04-27T01:36:43.821Z,99.90
2023-04-27T01:41:48.648Z,99.90
2023-04-27T01:46:52.257Z,99.90
2023-04-27T01:51:56.492Z,99.90
2023-04-27T01:57:01.989Z,99.90
2023-04-27T02:02:05.525Z,99.90
2023-04-27T02:07:09.106Z,99.90
2023-04-27T02:12:14.335Z,99.90
2023-04-27T02:17:17.649Z,99.90
2023-04-27T02:22:23.484Z,99.90
2023-04-27T02:27:28.218Z,99.90
2023-04-27T02:32:32.047Z,99.90
2023-04-27T02:37:35.385Z,99.90
2023-04-27T02:42:40.531Z,99.90
2023-04-27T02:47:43.952Z,99.90
2023-04-27T02:52:50.239Z,99.90
2023-04-27T02:57:55.622Z,99.90
2023-04-27T03:02:59.146Z,99.90
2023-04-27T03:08:03.422Z,99.90
2023-04-27T03:13:08.260Z,99.90
2023-04-27T03:18:11.716Z,99.90
2023-04-27T03:23:17.480Z,99.90
2023-04-27T03:28:22.838Z,99.90
2023-04-27T03:33:28.227Z,99.90
2023-04-27T03:38:31.998Z,99.90
2023-04-27T03:43:37.089Z,99.90
2023-04-27T03:48:40.624Z,99.90
2023-04-27T03:53:44.780Z,99.90
2023-04-27T03:58:49.641Z,99.90
2023-04-27T04:03:58.250Z,99.90
2023-04-27T04:09:01.976Z,99.90
2023-04-27T04:14:07.076Z,99.90
2023-04-27T04:19:11.257Z,99.90
2023-04-27T04:24:16.389Z,99.90
2023-04-27T04:29:21.914Z,99.90
2023-04-27T04:34:25.234Z,99.90
2023-04-27T04:39:31.143Z,99.90
2023-04-27T04:44:36.603Z,99.90
2023-04-27T04:49:40.329Z,99.90
2023-04-27T04:54:44.687Z,99.90
2023-04-27T04:59:49.751Z,99.90
2023-04-27T05:04:53.445Z,99.90
2023-04-27T05:09:57.480Z,99.90
2023-04-27T05:15:02.534Z,99.90
2023-04-27T05:20:08.157Z,99.90
2023-04-27T05:25:12.103Z,99.90
2023-04-27T05:30:17.336Z,99.90
2023-04-27T05:35:21.686Z,99.90
2023-04-27T05:40:25.286Z,99.90
2023-04-27T05:45:30.183Z,99.90
2023-04-27T05:50:33.803Z,99.90
2023-04-27T05:55:39.011Z,98.30
2023-04-27T06:00:44.009Z,94.90
2023-04-27T06:05:47.469Z,93.30
2023-04-27T06:10:51.782Z,85.20
2023-04-27T06:15:56.973Z,75.00
2023-04-27T06:21:01.952Z,71.90
2023-04-27T06:26:06.210Z,66.10
2023-04-27T06:31:11.850Z,67.60
2023-04-27T06:36:16.349Z,66.60
2023-04-27T06:41:19.654Z,63.10
2023-04-27T06:46:24.825Z,69.60
2023-04-27T06:51:28.504Z,65.80
2023-04-27T06:56:32.352Z,63.40
2023-04-27T07:01:37.601Z,59.80
2023-04-27T07:06:41.194Z,59.80
2023-04-27T07:11:44.934Z,61.00
2023-04-27T07:16:50.024Z,66.90
2023-04-27T07:21:54.325Z,63.70
2023-04-27T07:26:58.147Z,66.70
2023-04-27T07:32:05.805Z,69.10
2023-04-27T07:37:09.809Z,64.80
2023-04-27T07:42:13.449Z,65.80
2023-04-27T07:47:22.480Z,65.60
2023-04-27T07:52:26.605Z,62.20
2023-04-27T07:57:31.117Z,61.20
2023-04-27T08:02:36.341Z,59.80
2023-04-27T08:07:44.649Z,60.00
2023-04-27T08:12:48.789Z,63.20
2023-04-27T08:17:54.332Z,61.90
2023-04-27T08:22:58.408Z,63.60
2023-04-27T08:28:02.166Z,67.20
2023-04-27T08:33:07.059Z,72.80
2023-04-27T08:38:10.925Z,65.10
2023-04-27T08:43:14.808Z,57.30
2023-04-27T08:48:20.972Z,56.10
2023-04-27T08:53:25.543Z,54.00
2023-04-27T08:58:38.451Z,56.90
2023-04-27T09:08:51.041Z,67.90
2023-04-27T09:13:54.963Z,69.20
2023-04-27T09:19:00.290Z,67.50
2023-04-27T09:24:12.354Z,56.90
2023-04-27T09:29:16.460Z,58.00
2023-04-27T09:34:21.589Z,62.20
2023-04-27T09:39:25.692Z,65.70
2023-04-27T09:44:29.741Z,69.10
2023-04-27T09:49:36.386Z,61.50
2023-04-27T09:54:40.921Z,61.10
2023-04-27T10:00:01.746Z,56.50
2023-04-27T10:05:26.923Z,53.30
2023-04-27T10:10:31.233Z,56.00
2023-04-27T10:15:40.395Z,60.80
2023-04-27T10:20:46.679Z,65.00
2023-04-27T10:25:50.798Z,64.50
2023-04-27T10:30:54.271Z,53.50
2023-04-27T10:36:00.582Z,55.60
2023-04-27T10:41:07.182Z,58.20
2023-04-27T10:46:12.413Z,57.00
2023-04-27T10:51:18.087Z,55.30
2023-04-27T10:56:23.814Z,57.20
2023-04-27T11:01:29.465Z,58.50
2023-04-27T11:06:42.741Z,58.00
2023-04-27T11:11:46.597Z,57.00
2023-04-27T11:16:50.711Z,53.60
2023-04-27T11:22:03.293Z,54.60
2023-04-27T11:27:07.454Z,55.20
2023-04-27T11:32:19.966Z,54.90
2023-04-27T11:37:26.695Z,56.00
2023-04-27T11:42:35.200Z,59.80
2023-04-27T11:47:42.458Z,63.00
2023-04-27T11:52:49.465Z,61.70
2023-04-27T11:58:01.319Z,64.50
2023-04-27T12:03:05.407Z,63.20
2023-04-27T12:08:10.601Z,64.60
2023-04-27T12:13:14.461Z,59.00
2023-04-27T12:18:17.988Z,58.20
2023-04-27T12:23:23.235Z,55.90
2023-04-27T12:28:27.105Z,55.10
2023-04-27T12:33:30.858Z,55.00
2023-04-27T12:38:35.648Z,54.30
2023-04-27T12:43:41.160Z,50.90
2023-04-27T12:48:44.741Z,55.80
2023-04-27T12:53:50.491Z,52.80
2023-04-27T12:58:54.618Z,52.70
2023-04-27T13:04:01.917Z,53.40
2023-04-27T13:09:07.216Z,51.90
2023-04-27T13:14:13.322Z,51.90
2023-04-27T13:19:17.737Z,55.80
2023-04-27T13:24:24.806Z,55.80
2023-04-27T13:29:28.937Z,55.70
2023-04-27T13:34:33.374Z,57.50
2023-04-27T13:39:38.472Z,58.90
2023-04-27T13:44:41.961Z,59.40
2023-04-27T13:52:59.546Z,56.40
2023-04-27T13:58:03.102Z,58.20
2023-04-27T14:03:09.120Z,55.60
2023-04-27T14:08:13.912Z,58.20
2023-04-27T14:13:18.531Z,58.60
2023-04-27T14:18:29.652Z,54.40
2023-04-27T14:23:36.803Z,52.30
2023-04-27T14:28:41.029Z,52.40
2023-04-27T14:33:44.842Z,52.70
2023-04-27T14:38:49.607Z,52.20
2023-04-27T14:43:54.013Z,54.10
2023-04-27T14:48:57.344Z,55.30
2023-04-27T14:54:04.367Z,57.10
2023-04-27T14:59:08.171Z,60.50
2023-04-27T15:04:12.293Z,58.90
2023-04-27T15:09:17.412Z,56.40
2023-04-27T15:14:21.479Z,58.30
2023-04-27T15:19:25.061Z,55.00
2023-04-27T15:24:29.830Z,53.10
2023-04-27T15:29:33.252Z,53.00
2023-04-27T15:34:36.696Z,51.50
2023-04-27T15:39:42.140Z,50.10
2023-04-27T15:44:45.450Z,49.80
2023-04-27T15:49:57.085Z,52.30
2023-04-27T15:55:04.387Z,50.20
2023-04-27T16:00:10.388Z,51.00
2023-04-27T16:05:16.976Z,51.60
2023-04-27T16:10:21.679Z,49.60
2023-04-27T16:15:25.135Z,51.70
2023-04-27T16:20:30.870Z,51.90
2023-04-27T16:25:35.672Z,52.00
2023-04-27T16:30:39.007Z,52.70
2023-04-27T16:35:42.409Z,52.50
2023-04-27T16:40:47.335Z,53.40
2023-04-27T16:45:51.331Z,51.80
2023-04-27T16:50:55.688Z,53.70
2023-04-27T16:56:02.018Z,52.60
2023-04-27T17:01:05.645Z,54.70
2023-04-27T17:06:09.269Z,54.00
2023-04-27T17:11:14.601Z,56.40
2023-04-27T17:16:18.868Z,60.90
2023-04-27T17:21:24.912Z,62.30
2023-04-27T17:26:29.802Z,62.50
2023-04-27T17:31:33.930Z,64.60
2023-04-27T17:36:37.277Z,67.00
2023-04-27T17:41:43.259Z,70.00
2023-04-27T17:46:47.250Z,74.90
2023-04-27T17:51:50.710Z,74.80
2023-04-27T17:56:55.530Z,80.50
2023-04-27T18:01:59.491Z,82.70
2023-04-27T18:07:02.930Z,84.90
2023-04-27T18:12:11.108Z,84.70
2023-04-27T18:17:15.125Z,86.40
2023-04-27T18:22:19.026Z,87.70
2023-04-27T18:27:23.827Z,88.60
2023-04-27T18:32:27.211Z,90.70
2023-04-27T18:37:30.798Z,91.90
2023-04-27T18:42:35.676Z,93.00
2023-04-27T18:47:39.863Z,94.40
2023-04-27T18:52:43.169Z,96.40
2023-04-27T18:57:47.823Z,98.20
2023-04-27T19:02:52.319Z,99.90
2023-04-27T19:07:56.074Z,99.90
2023-04-27T19:13:01.301Z,99.90
2023-04-27T19:18:10.686Z,99.90
2023-04-27T19:23:16.780Z,99.90
2023-04-27T19:28:23.324Z,99.90
2023-04-27T19:33:27.020Z,99.90
2023-04-27T19:38:31.009Z,99.90
2023-04-27T19:43:36.972Z,99.90
2023-04-27T19:48:42.347Z,99.90
2023-04-27T19:53:46.425Z,99.90
2023-04-27T19:58:51.439Z,99.90
2023-04-27T20:03:55.048Z,99.90
2023-04-27T20:08:58.734Z,99.90
2023-04-27T20:14:03.529Z,99.90
2023-04-27T20:19:07.099Z,99.90
2023-04-27T20:24:10.688Z,99.90
2023-04-27T20:29:15.932Z,99.90
2023-04-27T20:34:19.362Z,99.90
2023-04-27T20:39:22.890Z,99.90
2023-04-27T20:44:27.914Z,99.90
2023-04-27T20:49:35.118Z,99.90
2023-04-27T20:54:39.756Z,99.90
2023-04-27T20:59:44.590Z,99.90
2023-04-27T21:04:48.051Z,99.90
2023-04-27T21:09:51.598Z,99.90
2023-04-27T21:14:56.983Z,99.90
2023-04-27T21:20:00.451Z,99.90
2023-04-27T21:25:05.091Z,99.90
2023-04-27T21:30:11.364Z,99.90
2023-04-27T21:35:15.060Z,99.90
2023-04-27T21:40:18.750Z,99.90
2023-04-27T21:45:23.864Z,99.90
2023-04-27T21:50:27.272Z,99.90
2023-04-27T21:55:31.033Z,99.90
2023-04-27T22:00:35.907Z,99.90
2023-04-27T22:05:40.794Z,99.90
2023-04-27T22:10:44.200Z,99.90
2023-04-27T22:15:49.127Z,99.90
2023-04-27T22:20:54.619Z,99.90
2023-04-27T22:25:59.535Z,99.90
2023-04-27T22:31:04.841Z,99.90
2023-04-27T22:36:09.415Z,99.90
2023-04-27T22:41:13.578Z,99.90
2023-04-27T22:46:18.464Z,99.90
2023-04-27T22:51:23.712Z,99.90
2023-04-27T22:56:27.662Z,99.90
2023-04-27T23:01:33.073Z,99.90
2023-04-27T23:06:36.485Z,99.90
2023-04-27T23:11:40.469Z,99.90
2023-04-27T23:16:48.465Z,99.90
2023-04-27T23:21:51.897Z,99.90
2023-04-27T23:26:55.881Z,99.90
2023-04-27T23:32:04.336Z,99.90
2023-04-27T23:37:07.880Z,99.90
2023-04-27T23:42:11.427Z,99.90
2023-04-27T23:47:16.437Z,99.90
2023-04-27T23:52:19.897Z,99.90
2023-04-27T23:57:23.314Z,99.90
